ROMMA est une association bénévole à but non lucratif. Votre soutien est indispensable : ADHERER à ROMMA ou FAIRE un DON

Col du Lautaret - (05, Hautes-Alpes)

Massif des Ecrins (2075 m)   Longitude: 06° 24' 06" E   Latitude: 45° 02' 08" N Station partenaire n°21
 

Détail journalier du     <<     >>

Température Precipitation Humidité Vent Dir Rafale Dir. rafale Ensol.
Heure (°C) (mm) (%) (km/h) (km/h) (min)
01:00 5.30937SO16SO0
02:00 5.109510SO19SO0
03:00 5.00936SO16SO0
04:00 5.00855SO10O0
05:00 5.10865OSO11OSO0
06:00 4.40899SO16SO0
07:00 4.50887S21SO0
08:00 6.70789SSO24SO40
09:00 7.90738SSO23SO60
10:00 10.10658S23S60
11:00 11.90577SE18SSE50
12:00 13.604710SO24SO60
13:00 13.104713OSO31OSO50
14:00 13.705217OSO37O50
15:00 14.205017OSO32SO60
16:00 14.605013SO32OSO60
17:00 14.705514SO35SO60
18:00 14.90569SO23OSO60
19:00 11.905810N31N60
20:00 13.506111OSO40N60
21:00 10.40635NNO21N30
22:00 9.20695N19N0
23:00 8.80706N27N0
minuit 9.00698N29N0

Graphique du 21-06-2020

 

Serveur OMMA